sensor_id;sensor_type;location;lat;lon;timestamp;pressure;altitude;pressure_sealevel;temperature
65272;BMP280;51868;48.812;8.198;2023-02-26T00:00:02;100096.63;;;2.57
65272;BMP280;51868;48.812;8.198;2023-02-26T00:02:33;100093.31;;;2.59
65272;BMP280;51868;48.812;8.198;2023-02-26T00:05:01;100095.50;;;2.60
65272;BMP280;51868;48.812;8.198;2023-02-26T00:07:29;100092.19;;;2.62
65272;BMP280;51868;48.812;8.198;2023-02-26T00:09:58;100090.72;;;2.61
65272;BMP280;51868;48.812;8.198;2023-02-26T00:12:27;100092.03;;;2.60
65272;BMP280;51868;48.812;8.198;2023-02-26T00:14:55;100095.75;;;2.54
65272;BMP280;51868;48.812;8.198;2023-02-26T00:17:25;100089.03;;;2.48
65272;BMP280;51868;48.812;8.198;2023-02-26T00:19:56;100090.56;;;2.41
65272;BMP280;51868;48.812;8.198;2023-02-26T00:22:23;100091.91;;;2.32
65272;BMP280;51868;48.812;8.198;2023-02-26T00:24:51;100094.34;;;2.28
65272;BMP280;51868;48.812;8.198;2023-02-26T00:27:20;100097.66;;;2.27
65272;BMP280;51868;48.812;8.198;2023-02-26T00:29:48;100097.50;;;2.25
65272;BMP280;51868;48.812;8.198;2023-02-26T00:32:16;100105.00;;;2.24
65272;BMP280;51868;48.812;8.198;2023-02-26T00:34:44;100107.94;;;2.19
65272;BMP280;51868;48.812;8.198;2023-02-26T00:37:15;100101.97;;;2.12
65272;BMP280;51868;48.812;8.198;2023-02-26T00:39:50;100098.91;;;2.08
65272;BMP280;51868;48.812;8.198;2023-02-26T00:42:22;100103.81;;;2.10
65272;BMP280;51868;48.812;8.198;2023-02-26T00:44:50;100107.44;;;2.12
65272;BMP280;51868;48.812;8.198;2023-02-26T00:47:19;100114.53;;;2.16
65272;BMP280;51868;48.812;8.198;2023-02-26T00:49:54;100115.97;;;2.17
65272;BMP280;51868;48.812;8.198;2023-02-26T00:52:25;100114.53;;;2.16
65272;BMP280;51868;48.812;8.198;2023-02-26T00:54:55;100105.59;;;2.15
65272;BMP280;51868;48.812;8.198;2023-02-26T00:57:24;100112.91;;;2.12
65272;BMP280;51868;48.812;8.198;2023-02-26T00:59:51;100116.94;;;2.11
65272;BMP280;51868;48.812;8.198;2023-02-26T01:02:19;100117.50;;;2.10
65272;BMP280;51868;48.812;8.198;2023-02-26T01:04:47;100107.13;;;2.08
65272;BMP280;51868;48.812;8.198;2023-02-26T01:07:14;100113.84;;;2.07
65272;BMP280;51868;48.812;8.198;2023-02-26T01:09:44;100113.84;;;2.07
65272;BMP280;51868;48.812;8.198;2023-02-26T01:12:12;100110.94;;;2.05
65272;BMP280;51868;48.812;8.198;2023-02-26T01:14:44;100109.50;;;2.04
65272;BMP280;51868;48.812;8.198;2023-02-26T01:17:13;100110.81;;;2.03
65272;BMP280;51868;48.812;8.198;2023-02-26T01:19:45;100106.59;;;2.02
65272;BMP280;51868;48.812;8.198;2023-02-26T01:22:15;100105.16;;;2.01
65272;BMP280;51868;48.812;8.198;2023-02-26T01:24:45;100105.72;;;2.00
65272;BMP280;51868;48.812;8.198;2023-02-26T01:27:13;100100.63;;;1.96
65272;BMP280;51868;48.812;8.198;2023-02-26T01:29:41;100105.38;;;1.96
65272;BMP280;51868;48.812;8.198;2023-02-26T01:32:13;100105.94;;;1.94
65272;BMP280;51868;48.812;8.198;2023-02-26T01:34:43;100108.34;;;1.90
65272;BMP280;51868;48.812;8.198;2023-02-26T01:37:18;100114.22;;;1.86
65272;BMP280;51868;48.812;8.198;2023-02-26T01:39:59;100110.41;;;1.82
65272;BMP280;51868;48.812;8.198;2023-02-26T01:42:29;100108.63;;;1.77
65272;BMP280;51868;48.812;8.198;2023-02-26T01:44:58;100112.66;;;1.76
65272;BMP280;51868;48.812;8.198;2023-02-26T01:47:29;100108.28;;;1.73
65272;BMP280;51868;48.812;8.198;2023-02-26T01:50:05;100107.22;;;1.68
65272;BMP280;51868;48.812;8.198;2023-02-26T01:55:31;100113.28;;;1.59
65272;BMP280;51868;48.812;8.198;2023-02-26T01:57:58;100111.50;;;1.54
65272;BMP280;51868;48.812;8.198;2023-02-26T02:00:27;100119.34;;;1.49
65272;BMP280;51868;48.812;8.198;2023-02-26T02:02:56;100111.38;;;1.44
65272;BMP280;51868;48.812;8.198;2023-02-26T02:05:25;100113.22;;;1.41
65272;BMP280;51868;48.812;8.198;2023-02-26T02:07:54;100116.50;;;1.40
65272;BMP280;51868;48.812;8.198;2023-02-26T02:10:22;100114.31;;;1.38
65272;BMP280;51868;48.812;8.198;2023-02-26T02:12:51;100113.25;;;1.34
65272;BMP280;51868;48.812;8.198;2023-02-26T02:15:23;100115.47;;;1.27
65272;BMP280;51868;48.812;8.198;2023-02-26T02:18:00;100112.41;;;1.23
65272;BMP280;51868;48.812;8.198;2023-02-26T02:20:36;100119.13;;;1.22
65272;BMP280;51868;48.812;8.198;2023-02-26T02:23:10;100117.69;;;1.21
65272;BMP280;51868;48.812;8.198;2023-02-26T02:25:44;100120.25;;;1.19
65272;BMP280;51868;48.812;8.198;2023-02-26T02:28:19;100127.19;;;1.20
65272;BMP280;51868;48.812;8.198;2023-02-26T02:30:56;100128.44;;;1.19
65272;BMP280;51868;48.812;8.198;2023-02-26T02:33:27;100128.97;;;1.18
65272;BMP280;51868;48.812;8.198;2023-02-26T02:35:56;100131.00;;;1.17
65272;BMP280;51868;48.812;8.198;2023-02-26T02:38:27;100132.28;;;1.16
65272;BMP280;51868;48.812;8.198;2023-02-26T02:41:00;100136.28;;;1.15
65272;BMP280;51868;48.812;8.198;2023-02-26T02:43:30;100132.66;;;1.13
65272;BMP280;51868;48.812;8.198;2023-02-26T02:46:02;100133.22;;;1.11
65272;BMP280;51868;48.812;8.198;2023-02-26T02:48:31;100147.44;;;1.10
65272;BMP280;51868;48.812;8.198;2023-02-26T02:51:00;100144.91;;;1.04
65272;BMP280;51868;48.812;8.198;2023-02-26T02:53:29;100137.44;;;0.97
65272;BMP280;51868;48.812;8.198;2023-02-26T02:56:01;100142.19;;;0.96
65272;BMP280;51868;48.812;8.198;2023-02-26T02:58:31;100132.53;;;0.95
65272;BMP280;51868;48.812;8.198;2023-02-26T03:01:05;100138.53;;;0.94
65272;BMP280;51868;48.812;8.198;2023-02-26T03:03:34;100138.38;;;0.92
65272;BMP280;51868;48.812;8.198;2023-02-26T03:06:03;100139.81;;;0.93
65272;BMP280;51868;48.812;8.198;2023-02-26T03:08:32;100137.44;;;0.97
65272;BMP280;51868;48.812;8.198;2023-02-26T03:11:00;100143.97;;;1.01
65272;BMP280;51868;48.812;8.198;2023-02-26T03:13:28;100140.34;;;1.07
65272;BMP280;51868;48.812;8.198;2023-02-26T03:15:59;100146.53;;;1.07
65272;BMP280;51868;48.812;8.198;2023-02-26T03:18:35;100147.63;;;1.04
65272;BMP280;51868;48.812;8.198;2023-02-26T03:21:06;100156.75;;;0.99
65272;BMP280;51868;48.812;8.198;2023-02-26T03:23:36;100154.94;;;0.94
65272;BMP280;51868;48.812;8.198;2023-02-26T03:26:07;100161.69;;;0.93
65272;BMP280;51868;48.812;8.198;2023-02-26T03:28:38;100156.75;;;0.91
65272;BMP280;51868;48.812;8.198;2023-02-26T03:31:08;100159.31;;;0.89
65272;BMP280;51868;48.812;8.198;2023-02-26T03:33:41;100156.41;;;0.87
65272;BMP280;51868;48.812;8.198;2023-02-26T03:36:10;100156.78;;;0.83
65272;BMP280;51868;48.812;8.198;2023-02-26T03:38:41;100157.16;;;0.80
65272;BMP280;51868;48.812;8.198;2023-02-26T03:41:12;100165.88;;;0.78
65272;BMP280;51868;48.812;8.198;2023-02-26T03:43:41;100161.34;;;0.73
65272;BMP280;51868;48.812;8.198;2023-02-26T03:46:13;100169.72;;;0.68
65272;BMP280;51868;48.812;8.198;2023-02-26T03:48:42;100173.19;;;0.60
65272;BMP280;51868;48.812;8.198;2023-02-26T03:51:11;100180.47;;;0.58
65272;BMP280;51868;48.812;8.198;2023-02-26T03:53:42;100178.81;;;0.55
65272;BMP280;51868;48.812;8.198;2023-02-26T03:56:12;100173.00;;;0.58
65272;BMP280;51868;48.812;8.198;2023-02-26T03:58:41;100174.28;;;0.65
65272;BMP280;51868;48.812;8.198;2023-02-26T04:01:10;100174.81;;;0.71
65272;BMP280;51868;48.812;8.198;2023-02-26T04:03:39;100173.56;;;0.72
65272;BMP280;51868;48.812;8.198;2023-02-26T04:06:09;100176.44;;;0.67
65272;BMP280;51868;48.812;8.198;2023-02-26T04:08:37;100184.09;;;0.53
65272;BMP280;51868;48.812;8.198;2023-02-26T04:11:05;100184.47;;;0.41
65272;BMP280;51868;48.812;8.198;2023-02-26T04:13:35;100182.47;;;0.34
65272;BMP280;51868;48.812;8.198;2023-02-26T04:16:02;100188.13;;;0.29
65272;BMP280;51868;48.812;8.198;2023-02-26T04:18:30;100190.16;;;0.28
65272;BMP280;51868;48.812;8.198;2023-02-26T04:20:58;100194.13;;;0.35
65272;BMP280;51868;48.812;8.198;2023-02-26T04:23:27;100189.91;;;0.41
65272;BMP280;51868;48.812;8.198;2023-02-26T04:25:54;100195.75;;;0.46
65272;BMP280;51868;48.812;8.198;2023-02-26T04:28:22;100190.66;;;0.50
65272;BMP280;51868;48.812;8.198;2023-02-26T04:30:49;100196.50;;;0.54
65272;BMP280;51868;48.812;8.198;2023-02-26T04:33:17;100189.94;;;0.57
65272;BMP280;51868;48.812;8.198;2023-02-26T04:35:44;100198.31;;;0.59
65272;BMP280;51868;48.812;8.198;2023-02-26T04:38:12;100202.50;;;0.60
65272;BMP280;51868;48.812;8.198;2023-02-26T04:40:41;100205.97;;;0.60
65272;BMP280;51868;48.812;8.198;2023-02-26T04:43:09;100209.06;;;0.57
65272;BMP280;51868;48.812;8.198;2023-02-26T04:45:36;100205.94;;;0.53
65272;BMP280;51868;48.812;8.198;2023-02-26T04:48:04;100213.94;;;0.51
65272;BMP280;51868;48.812;8.198;2023-02-26T04:50:31;100219.25;;;0.49
65272;BMP280;51868;48.812;8.198;2023-02-26T04:52:59;100217.97;;;0.50
65272;BMP280;51868;48.812;8.198;2023-02-26T04:55:26;100211.78;;;0.49
65272;BMP280;51868;48.812;8.198;2023-02-26T04:57:55;100217.97;;;0.50
65272;BMP280;51868;48.812;8.198;2023-02-26T05:00:23;100228.91;;;0.50
65272;BMP280;51868;48.812;8.198;2023-02-26T05:02:50;100223.97;;;0.48
65272;BMP280;51868;48.812;8.198;2023-02-26T05:05:18;100228.69;;;0.48
65272;BMP280;51868;48.812;8.198;2023-02-26T05:07:45;100228.69;;;0.48
65272;BMP280;51868;48.812;8.198;2023-02-26T05:10:13;100231.97;;;0.46
65272;BMP280;51868;48.812;8.198;2023-02-26T05:12:41;100235.06;;;0.42
65272;BMP280;51868;48.812;8.198;2023-02-26T05:15:10;100234.69;;;0.38
65272;BMP280;51868;48.812;8.198;2023-02-26T05:17:38;100229.06;;;0.36
65272;BMP280;51868;48.812;8.198;2023-02-26T05:20:06;100229.78;;;0.37
65272;BMP280;51868;48.812;8.198;2023-02-26T05:22:35;100236.72;;;0.38
65272;BMP280;51868;48.812;8.198;2023-02-26T05:25:03;100238.16;;;0.39
65272;BMP280;51868;48.812;8.198;2023-02-26T05:27:31;100239.44;;;0.38
65272;BMP280;51868;48.812;8.198;2023-02-26T05:29:59;100241.97;;;0.36
65272;BMP280;51868;48.812;8.198;2023-02-26T05:32:28;100244.00;;;0.35
65272;BMP280;51868;48.812;8.198;2023-02-26T05:34:55;100243.44;;;0.29
65272;BMP280;51868;48.812;8.198;2023-02-26T05:37:23;100243.81;;;0.26
65272;BMP280;51868;48.812;8.198;2023-02-26T05:39:50;100247.81;;;0.25
65272;BMP280;51868;48.812;8.198;2023-02-26T05:42:18;100251.06;;;0.23
65272;BMP280;51868;48.812;8.198;2023-02-26T05:44:45;100247.44;;;0.20
65272;BMP280;51868;48.812;8.198;2023-02-26T05:47:13;100250.91;;;0.21
65272;BMP280;51868;48.812;8.198;2023-02-26T05:49:42;100256.19;;;0.19
65272;BMP280;51868;48.812;8.198;2023-02-26T05:52:10;100255.25;;;0.16
65272;BMP280;51868;48.812;8.198;2023-02-26T05:54:37;100254.31;;;0.14
65272;BMP280;51868;48.812;8.198;2023-02-26T05:57:05;100265.59;;;0.10
65272;BMP280;51868;48.812;8.198;2023-02-26T05:59:33;100265.41;;;0.01
65272;BMP280;51868;48.812;8.198;2023-02-26T06:02:00;100278.47;;;-0.06
65272;BMP280;51868;48.812;8.198;2023-02-26T06:04:28;100276.47;;;-0.05
65272;BMP280;51868;48.812;8.198;2023-02-26T06:06:57;100279.75;;;-0.07
65272;BMP280;51868;48.812;8.198;2023-02-26T06:09:25;100277.16;;;-0.12
65272;BMP280;51868;48.812;8.198;2023-02-26T06:11:52;100280.63;;;-0.12
65272;BMP280;51868;48.812;8.198;2023-02-26T06:14:20;100286.25;;;-0.10
65272;BMP280;51868;48.812;8.198;2023-02-26T06:16:47;100290.66;;;-0.07
65272;BMP280;51868;48.812;8.198;2023-02-26T06:19:15;100303.41;;;-0.02
65272;BMP280;51868;48.812;8.198;2023-02-26T06:21:43;100298.66;;;-0.01
65272;BMP280;51868;48.812;8.198;2023-02-26T06:24:12;100310.31;;;-0.01
65272;BMP280;51868;48.812;8.198;2023-02-26T06:26:40;100311.59;;;-0.02
65272;BMP280;51868;48.812;8.198;2023-02-26T06:29:07;100315.03;;;-0.01
65272;BMP280;51868;48.812;8.198;2023-02-26T06:31:35;100318.84;;;-0.04
65272;BMP280;51868;48.812;8.198;2023-02-26T06:34:02;100328.47;;;-0.03
65272;BMP280;51868;48.812;8.198;2023-02-26T06:36:30;100334.84;;;-0.01
65272;BMP280;51868;48.812;8.198;2023-02-26T06:38:57;100330.88;;;0.01
65272;BMP280;51868;48.812;8.198;2023-02-26T06:41:28;100340.50;;;0.02
65272;BMP280;51868;48.812;8.198;2023-02-26T06:43:56;100344.50;;;0.01
65272;BMP280;51868;48.812;8.198;2023-02-26T06:46:23;100349.25;;;0.00
65272;BMP280;51868;48.812;8.198;2023-02-26T06:48:51;100353.22;;;-0.01
65272;BMP280;51868;48.812;8.198;2023-02-26T06:51:19;100347.25;;;0.01
65272;BMP280;51868;48.812;8.198;2023-02-26T06:53:47;100336.13;;;-0.02
65272;BMP280;51868;48.812;8.198;2023-02-26T06:56:17;100351.22;;;-0.01
65272;BMP280;51868;48.812;8.198;2023-02-26T06:58:46;100352.91;;;0.03
65272;BMP280;51868;48.812;8.198;2023-02-26T07:01:16;100362.19;;;0.07
65272;BMP280;51868;48.812;8.198;2023-02-26T07:03:46;100355.84;;;0.12
65272;BMP280;51868;48.812;8.198;2023-02-26T07:06:13;100360.94;;;0.16
65272;BMP280;51868;48.812;8.198;2023-02-26T07:08:52;100369.31;;;0.18
65272;BMP280;51868;48.812;8.198;2023-02-26T07:11:21;100371.53;;;0.19
65272;BMP280;51868;48.812;8.198;2023-02-26T07:13:50;100372.63;;;0.24
65272;BMP280;51868;48.812;8.198;2023-02-26T07:16:18;100383.19;;;0.28
65272;BMP280;51868;48.812;8.198;2023-02-26T07:18:45;100383.94;;;0.36
65272;BMP280;51868;48.812;8.198;2023-02-26T07:21:15;100374.84;;;0.41
65272;BMP280;51868;48.812;8.198;2023-02-26T07:23:43;100389.06;;;0.39
65272;BMP280;51868;48.812;8.198;2023-02-26T07:26:11;100383.41;;;0.45
65272;BMP280;51868;48.812;8.198;2023-02-26T07:28:38;100392.00;;;0.49
65272;BMP280;51868;48.812;8.198;2023-02-26T07:31:07;100397.66;;;0.51
65272;BMP280;51868;48.812;8.198;2023-02-26T07:33:35;100394.75;;;0.57
65272;BMP280;51868;48.812;8.198;2023-02-26T07:36:04;100397.50;;;0.64
65272;BMP280;51868;48.812;8.198;2023-02-26T07:38:31;100397.34;;;0.70
65272;BMP280;51868;48.812;8.198;2023-02-26T07:40:59;100396.44;;;0.75
65272;BMP280;51868;48.812;8.198;2023-02-26T07:43:27;100412.47;;;0.79
65272;BMP280;51868;48.812;8.198;2023-02-26T07:45:54;100405.91;;;0.82
65272;BMP280;51868;48.812;8.198;2023-02-26T07:48:23;100417.56;;;0.82
65272;BMP280;51868;48.812;8.198;2023-02-26T07:50:51;100413.59;;;0.83
65272;BMP280;51868;48.812;8.198;2023-02-26T07:53:19;100415.03;;;0.84
65272;BMP280;51868;48.812;8.198;2023-02-26T07:55:47;100417.97;;;0.87
65272;BMP280;51868;48.812;8.198;2023-02-26T07:58:22;100413.94;;;0.88
65272;BMP280;51868;48.812;8.198;2023-02-26T08:00:50;100417.63;;;0.90
65272;BMP280;51868;48.812;8.198;2023-02-26T08:03:18;100420.16;;;0.96
65272;BMP280;51868;48.812;8.198;2023-02-26T08:05:47;100422.00;;;1.01
65272;BMP280;51868;48.812;8.198;2023-02-26T08:08:14;100419.09;;;1.07
65272;BMP280;51868;48.812;8.198;2023-02-26T08:10:42;100421.66;;;1.12
65272;BMP280;51868;48.812;8.198;2023-02-26T08:13:10;100423.84;;;1.14
65272;BMP280;51868;48.812;8.198;2023-02-26T08:15:37;100410.91;;;1.22
65272;BMP280;51868;48.812;8.198;2023-02-26T08:18:09;100418.38;;;1.29
65272;BMP280;51868;48.812;8.198;2023-02-26T08:20:36;100415.63;;;1.37
65272;BMP280;51868;48.812;8.198;2023-02-26T08:23:05;100409.41;;;1.36
65272;BMP280;51868;48.812;8.198;2023-02-26T08:25:33;100405.97;;;1.36
65272;BMP280;51868;48.812;8.198;2023-02-26T08:28:01;100404.34;;;1.48
65272;BMP280;51868;48.812;8.198;2023-02-26T08:30:28;100405.94;;;1.82
65272;BMP280;51868;48.812;8.198;2023-02-26T08:32:56;100391.09;;;2.00
65272;BMP280;51868;48.812;8.198;2023-02-26T08:35:24;100391.31;;;2.35
65272;BMP280;51868;48.812;8.198;2023-02-26T08:37:51;100386.34;;;2.74
65272;BMP280;51868;48.812;8.198;2023-02-26T08:40:21;100403.25;;;3.13
65272;BMP280;51868;48.812;8.198;2023-02-26T08:42:49;100395.84;;;3.23
65272;BMP280;51868;48.812;8.198;2023-02-26T08:45:17;100408.81;;;3.05
65272;BMP280;51868;48.812;8.198;2023-02-26T08:47:45;100402.91;;;2.84
65272;BMP280;51868;48.812;8.198;2023-02-26T08:50:22;100401.97;;;2.64
65272;BMP280;51868;48.812;8.198;2023-02-26T08:52:50;100415.84;;;2.66
65272;BMP280;51868;48.812;8.198;2023-02-26T08:55:17;100422.25;;;2.61
65272;BMP280;51868;48.812;8.198;2023-02-26T08:57:46;100426.13;;;2.50
65272;BMP280;51868;48.812;8.198;2023-02-26T09:00:14;100424.53;;;2.39
65272;BMP280;51868;48.812;8.198;2023-02-26T09:02:43;100427.31;;;2.31
65272;BMP280;51868;48.812;8.198;2023-02-26T09:05:16;100426.91;;;2.35
65272;BMP280;51868;48.812;8.198;2023-02-26T09:07:46;100427.97;;;2.47
65272;BMP280;51868;48.812;8.198;2023-02-26T09:10:15;100429.25;;;2.79
65272;BMP280;51868;48.812;8.198;2023-02-26T09:12:43;100422.66;;;2.82
65272;BMP280;51868;48.812;8.198;2023-02-26T09:15:13;100435.31;;;3.03
65272;BMP280;51868;48.812;8.198;2023-02-26T09:17:41;100433.66;;;3.07
65272;BMP280;51868;48.812;8.198;2023-02-26T09:20:09;100448.53;;;2.96
65272;BMP280;51868;48.812;8.198;2023-02-26T09:22:37;100451.88;;;2.87
65272;BMP280;51868;48.812;8.198;2023-02-26T09:25:05;100453.75;;;2.77
65272;BMP280;51868;48.812;8.198;2023-02-26T09:27:32;100451.03;;;2.69
65272;BMP280;51868;48.812;8.198;2023-02-26T09:30:00;100456.66;;;2.79
65272;BMP280;51868;48.812;8.198;2023-02-26T09:32:34;100464.38;;;2.73
65272;BMP280;51868;48.812;8.198;2023-02-26T09:35:02;100462.13;;;2.87
65272;BMP280;51868;48.812;8.198;2023-02-26T09:37:30;100454.41;;;3.18
65272;BMP280;51868;48.812;8.198;2023-02-26T09:39:58;100437.44;;;3.54
65272;BMP280;51868;48.812;8.198;2023-02-26T09:42:28;100447.25;;;3.82
65272;BMP280;51868;48.812;8.198;2023-02-26T09:44:59;100445.22;;;3.83
65272;BMP280;51868;48.812;8.198;2023-02-26T09:47:27;100449.50;;;3.76
65272;BMP280;51868;48.812;8.198;2023-02-26T09:50:09;100450.63;;;3.56
65272;BMP280;51868;48.812;8.198;2023-02-26T09:52:43;100457.38;;;3.37
65272;BMP280;51868;48.812;8.198;2023-02-26T09:55:26;100461.13;;;3.25
65272;BMP280;51868;48.812;8.198;2023-02-26T09:57:55;100463.97;;;3.09
65272;BMP280;51868;48.812;8.198;2023-02-26T10:00:27;100478.84;;;2.98
65272;BMP280;51868;48.812;8.198;2023-02-26T10:02:58;100486.38;;;2.90
65272;BMP280;51868;48.812;8.198;2023-02-26T10:05:31;100470.72;;;2.83
65272;BMP280;51868;48.812;8.198;2023-02-26T10:08:03;100487.03;;;2.73
65272;BMP280;51868;48.812;8.198;2023-02-26T10:10:34;100484.81;;;2.72
65272;BMP280;51868;48.812;8.198;2023-02-26T10:13:04;100476.97;;;2.76
65272;BMP280;51868;48.812;8.198;2023-02-26T10:15:34;100475.28;;;2.81
65272;BMP280;51868;48.812;8.198;2023-02-26T10:18:05;100477.09;;;2.86
65272;BMP280;51868;48.812;8.198;2023-02-26T10:20:37;100479.28;;;2.87
65272;BMP280;51868;48.812;8.198;2023-02-26T10:23:17;100478.56;;;2.87
65272;BMP280;51868;48.812;8.198;2023-02-26T10:25:57;100485.50;;;2.88
65272;BMP280;51868;48.812;8.198;2023-02-26T10:28:37;100474.75;;;2.82
65272;BMP280;51868;48.812;8.198;2023-02-26T10:31:10;100474.56;;;2.80
65272;BMP280;51868;48.812;8.198;2023-02-26T10:33:44;100478.25;;;2.75
65272;BMP280;51868;48.812;8.198;2023-02-26T10:36:18;100488.47;;;2.74
65272;BMP280;51868;48.812;8.198;2023-02-26T10:38:49;100491.41;;;2.69
65272;BMP280;51868;48.812;8.198;2023-02-26T10:41:19;100494.38;;;2.63
65272;BMP280;51868;48.812;8.198;2023-02-26T10:43:50;100484.72;;;2.62
65272;BMP280;51868;48.812;8.198;2023-02-26T10:46:21;100493.66;;;2.63
65272;BMP280;51868;48.812;8.198;2023-02-26T10:48:56;100485.75;;;2.67
65272;BMP280;51868;48.812;8.198;2023-02-26T10:51:33;100492.31;;;2.71
65272;BMP280;51868;48.812;8.198;2023-02-26T10:54:03;100487.75;;;2.74
65272;BMP280;51868;48.812;8.198;2023-02-26T10:56:31;100494.69;;;2.75
65272;BMP280;51868;48.812;8.198;2023-02-26T10:58:59;100485.53;;;2.80
65272;BMP280;51868;48.812;8.198;2023-02-26T11:01:28;100499.75;;;2.86
65272;BMP280;51868;48.812;8.198;2023-02-26T11:03:57;100489.22;;;3.00
65272;BMP280;51868;48.812;8.198;2023-02-26T11:06:28;100489.16;;;3.15
65272;BMP280;51868;48.812;8.198;2023-02-26T11:08:58;100498.00;;;3.31
65272;BMP280;51868;48.812;8.198;2023-02-26T11:11:37;100496.09;;;3.41
65272;BMP280;51868;48.812;8.198;2023-02-26T11:14:05;100497.00;;;3.44
65272;BMP280;51868;48.812;8.198;2023-02-26T11:16:34;100508.91;;;3.39
65272;BMP280;51868;48.812;8.198;2023-02-26T11:19:07;100507.47;;;3.38
65272;BMP280;51868;48.812;8.198;2023-02-26T11:21:37;100503.84;;;3.35
65272;BMP280;51868;48.812;8.198;2023-02-26T11:24:06;100504.94;;;3.32
65272;BMP280;51868;48.812;8.198;2023-02-26T11:26:35;100521.22;;;3.30
65272;BMP280;51868;48.812;8.198;2023-02-26T11:29:03;100523.81;;;3.28
65272;BMP280;51868;48.812;8.198;2023-02-26T11:31:31;100518.88;;;3.27
65272;BMP280;51868;48.812;8.198;2023-02-26T11:34:01;100515.09;;;3.22
65272;BMP280;51868;48.812;8.198;2023-02-26T11:36:30;100518.78;;;3.17
65272;BMP280;51868;48.812;8.198;2023-02-26T11:39:02;100513.28;;;3.17
65272;BMP280;51868;48.812;8.198;2023-02-26T11:41:34;100518.59;;;3.15
65272;BMP280;51868;48.812;8.198;2023-02-26T11:44:04;100513.28;;;3.17
65272;BMP280;51868;48.812;8.198;2023-02-26T11:46:33;100501.19;;;3.20
65272;BMP280;51868;48.812;8.198;2023-02-26T11:49:04;100509.78;;;3.24
65272;BMP280;51868;48.812;8.198;2023-02-26T11:51:32;100509.78;;;3.24
65272;BMP280;51868;48.812;8.198;2023-02-26T11:54:02;100516.13;;;3.27
65272;BMP280;51868;48.812;8.198;2023-02-26T11:56:35;100501.63;;;3.34
65272;BMP280;51868;48.812;8.198;2023-02-26T11:59:06;100507.66;;;3.40
65272;BMP280;51868;48.812;8.198;2023-02-26T12:01:35;100507.41;;;3.46
65272;BMP280;51868;48.812;8.198;2023-02-26T12:04:03;100512.19;;;3.45
65272;BMP280;51868;48.812;8.198;2023-02-26T12:06:31;100509.09;;;3.41
65272;BMP280;51868;48.812;8.198;2023-02-26T12:09:00;100508.91;;;3.39
65272;BMP280;51868;48.812;8.198;2023-02-26T12:11:34;100507.84;;;3.34
65272;BMP280;51868;48.812;8.198;2023-02-26T12:14:14;100515.00;;;3.30
65272;BMP280;51868;48.812;8.198;2023-02-26T12:16:49;100511.38;;;3.27
65272;BMP280;51868;48.812;8.198;2023-02-26T12:19:20;100513.56;;;3.29
65272;BMP280;51868;48.812;8.198;2023-02-26T12:21:55;100517.94;;;3.32
65272;BMP280;51868;48.812;8.198;2023-02-26T12:24:33;100518.47;;;3.30
65272;BMP280;51868;48.812;8.198;2023-02-26T12:27:11;100511.63;;;3.22
65272;BMP280;51868;48.812;8.198;2023-02-26T12:32:35;100506.56;;;3.10
65272;BMP280;51868;48.812;8.198;2023-02-26T12:35:25;100516.63;;;3.08
65272;BMP280;51868;48.812;8.198;2023-02-26T12:37:59;100507.28;;;3.11
65272;BMP280;51868;48.812;8.198;2023-02-26T12:43:22;100507.50;;;3.30
65272;BMP280;51868;48.812;8.198;2023-02-26T12:45:52;100512.22;;;3.37
65272;BMP280;51868;48.812;8.198;2023-02-26T12:48:28;100510.34;;;3.48
65272;BMP280;51868;48.812;8.198;2023-02-26T12:51:01;100501.28;;;3.55
65272;BMP280;51868;48.812;8.198;2023-02-26T12:53:41;100501.47;;;3.57
65272;BMP280;51868;48.812;8.198;2023-02-26T12:56:17;100518.09;;;3.59
65272;BMP280;51868;48.812;8.198;2023-02-26T12:58:55;100505.94;;;3.70
65272;BMP280;51868;48.812;8.198;2023-02-26T13:01:37;100520.31;;;3.78
65272;BMP280;51868;48.812;8.198;2023-02-26T13:04:35;100508.59;;;3.77
65272;BMP280;51868;48.812;8.198;2023-02-26T13:07:11;100530.41;;;3.75
65272;BMP280;51868;48.812;8.198;2023-02-26T13:09:45;100523.31;;;3.72
65272;BMP280;51868;48.812;8.198;2023-02-26T13:12:25;100511.44;;;3.70
65272;BMP280;51868;48.812;8.198;2023-02-26T13:15:01;100518.22;;;3.69
65272;BMP280;51868;48.812;8.198;2023-02-26T13:17:34;100516.69;;;3.75
65272;BMP280;51868;48.812;8.198;2023-02-26T13:20:09;100509.66;;;3.82
65272;BMP280;51868;48.812;8.198;2023-02-26T13:22:41;100512.75;;;3.86
65272;BMP280;51868;48.812;8.198;2023-02-26T13:25:15;100521.28;;;3.90
65272;BMP280;51868;48.812;8.198;2023-02-26T13:27:44;100517.50;;;3.85
65272;BMP280;51868;48.812;8.198;2023-02-26T13:33:01;100512.97;;;3.80
65272;BMP280;51868;48.812;8.198;2023-02-26T13:35:33;100512.25;;;3.80
65272;BMP280;51868;48.812;8.198;2023-02-26T13:38:04;100527.03;;;3.84
65272;BMP280;51868;48.812;8.198;2023-02-26T13:40:41;100508.88;;;3.89
65272;BMP280;51868;48.812;8.198;2023-02-26T13:43:24;100510.91;;;4.23
65272;BMP280;51868;48.812;8.198;2023-02-26T13:46:00;100495.22;;;4.78
65272;BMP280;51868;48.812;8.198;2023-02-26T13:48:36;100484.03;;;6.78
65272;BMP280;51868;48.812;8.198;2023-02-26T13:51:12;100470.78;;;9.70
65272;BMP280;51868;48.812;8.198;2023-02-26T13:53:51;100468.38;;;11.85
65272;BMP280;51868;48.812;8.198;2023-02-26T13:59:24;100475.66;;;12.08
65272;BMP280;51868;48.812;8.198;2023-02-26T14:01:56;100501.31;;;9.84
65272;BMP280;51868;48.812;8.198;2023-02-26T14:04:28;100515.31;;;8.31
65272;BMP280;51868;48.812;8.198;2023-02-26T14:06:59;100514.59;;;7.33
65272;BMP280;51868;48.812;8.198;2023-02-26T14:12:23;100524.38;;;5.94
65272;BMP280;51868;48.812;8.198;2023-02-26T14:17:40;100534.00;;;5.09
65272;BMP280;51868;48.812;8.198;2023-02-26T14:20:17;100539.81;;;4.86
65272;BMP280;51868;48.812;8.198;2023-02-26T14:22:47;100540.25;;;4.65
65272;BMP280;51868;48.812;8.198;2023-02-26T14:25:18;100555.00;;;4.43
65272;BMP280;51868;48.812;8.198;2023-02-26T14:27:48;100545.09;;;4.30
65272;BMP280;51868;48.812;8.198;2023-02-26T14:30:24;100561.34;;;4.18
65272;BMP280;51868;48.812;8.198;2023-02-26T14:33:05;100556.06;;;4.13
65272;BMP280;51868;48.812;8.198;2023-02-26T14:35:36;100560.50;;;4.08
65272;BMP280;51868;48.812;8.198;2023-02-26T14:38:07;100565.63;;;4.04
65272;BMP280;51868;48.812;8.198;2023-02-26T14:40:45;100566.56;;;4.06
65272;BMP280;51868;48.812;8.198;2023-02-26T14:43:15;100563.81;;;4.06
65272;BMP280;51868;48.812;8.198;2023-02-26T14:45:45;100566.22;;;4.02